Time;durP1;ratioP1;P1;durP2;ratioP2;P2;SDS_P1;SDS_P2;PMS_P1;PMS_P2;Temp;Humidity;BMP_temperature;BMP_pressure;BME280_temperature;BME280_humidity;BME280_pressure;Samples;Min_cycle;Max_cycle;Signal;HPM_P1;HPM_P2
2024/03/04 00:01:33;;;;;;;47.90;28.60;;;;;;;4.69;71.72;96363.98;108842;1253;101631;-76
2024/03/04 00:04:01;;;;;;;43.40;26.90;;;;;;;4.63;71.78;96360.94;108799;1253;100156;-77
2024/03/04 00:06:29;;;;;;;43.70;25.80;;;;;;;4.59;71.89;96359.36;108780;1253;95557;-77
2024/03/04 00:08:57;;;;;;;40.70;26.50;;;;;;;4.54;71.78;96357.01;108837;1253;97110;-77
2024/03/04 00:11:26;;;;;;;37.90;24.20;;;;;;;4.50;71.83;96354.91;108831;1252;103777;-77
2024/03/04 00:13:54;;;;;;;43.00;25.80;;;;;;;4.46;71.90;96352.33;108806;1252;101714;-77
2024/03/04 00:16:22;;;;;;;38.80;25.40;;;;;;;4.41;71.73;96351.48;108804;1252;100094;-77
2024/03/04 00:18:49;;;;;;;40.50;25.70;;;;;;;4.32;71.78;96347.64;108761;1252;95580;-77
2024/03/04 00:21:17;;;;;;;45.70;27.40;;;;;;;4.24;71.92;96341.64;108810;1253;96368;-76
2024/03/04 00:23:45;;;;;;;40.50;26.00;;;;;;;4.20;71.95;96340.27;108847;1252;103735;-77
2024/03/04 00:26:12;;;;;;;40.80;26.00;;;;;;;4.15;71.89;96341.71;108827;1251;101399;-77
2024/03/04 00:28:40;;;;;;;37.40;22.50;;;;;;;4.06;72.07;96343.59;108813;1253;100009;-77
2024/03/04 00:31:08;;;;;;;36.40;22.90;;;;;;;4.03;72.26;96344.28;108837;1252;95639;-77
2024/03/04 00:33:36;;;;;;;33.20;20.80;;;;;;;4.01;72.24;96338.51;108819;1252;96028;-77
2024/03/04 00:36:07;;;;;;;30.60;21.10;;;;;;;3.92;72.29;96333.91;108809;1253;103873;-76
2024/03/04 00:38:35;;;;;;;34.70;23.00;;;;;;;3.87;72.32;96337.80;108865;1252;100163;-77
2024/03/04 00:41:02;;;;;;;39.10;24.80;;;;;;;3.81;72.36;96337.77;108822;1252;100167;-77
2024/03/04 00:43:31;;;;;;;29.60;20.70;;;;;;;3.74;72.46;96340.47;108831;1253;96060;-77
2024/03/04 00:45:59;;;;;;;33.80;20.30;;;;;;;3.69;72.38;96342.73;108796;1253;95995;-77
2024/03/04 00:48:27;;;;;;;34.90;21.20;;;;;;;3.65;72.35;96342.17;108823;1252;103537;-77
2024/03/04 00:50:56;;;;;;;37.10;23.00;;;;;;;3.56;72.34;96342.47;108803;1252;102180;-77
2024/03/04 00:53:24;;;;;;;33.40;22.50;;;;;;;3.46;72.40;96340.14;108797;1253;107702;-77
2024/03/04 00:55:52;;;;;;;38.10;23.60;;;;;;;3.43;72.53;96347.98;108839;1253;95605;-78
2024/03/04 00:58:19;;;;;;;36.40;24.10;;;;;;;3.41;72.62;96345.82;108888;1253;96109;-77
2024/03/04 01:00:47;;;;;;;37.60;23.20;;;;;;;3.34;72.72;96333.34;108851;1252;111156;-77
2024/03/04 01:03:15;;;;;;;37.90;23.80;;;;;;;3.33;72.82;96341.17;108796;1253;108716;-77
2024/03/04 01:05:45;;;;;;;38.30;24.50;;;;;;;3.32;72.86;96351.34;108830;1253;100421;-77
2024/03/04 01:08:14;;;;;;;42.00;25.10;;;;;;;3.33;73.02;96349.54;108773;1251;95819;-76
2024/03/04 01:10:43;;;;;;;40.00;25.10;;;;;;;3.31;72.98;96347.27;108865;1253;95993;-77
2024/03/04 01:13:11;;;;;;;36.20;25.00;;;;;;;3.24;72.88;96348.04;108883;1251;104020;-77
2024/03/04 01:15:39;;;;;;;38.90;25.00;;;;;;;3.20;72.98;96343.53;108836;1253;101539;-77
2024/03/04 01:18:09;;;;;;;34.80;23.10;;;;;;;3.13;73.04;96340.52;108834;1253;100218;-77
2024/03/04 01:20:38;;;;;;;38.60;23.70;;;;;;;3.09;73.15;96340.15;108816;1253;95620;-77
2024/03/04 01:23:08;;;;;;;32.60;23.10;;;;;;;3.05;73.16;96338.56;108839;1251;95936;-76
2024/03/04 01:25:36;;;;;;;41.50;30.40;;;;;;;3.02;73.24;96337.64;108827;1253;103676;-77
2024/03/04 01:28:04;;;;;;;37.40;24.80;;;;;;;3.00;73.38;96343.42;108846;1252;101631;-77
2024/03/04 01:30:31;;;;;;;33.80;24.20;;;;;;;2.98;73.47;96338.89;108836;1252;100111;-76
2024/03/04 01:32:59;;;;;;;30.90;21.70;;;;;;;2.94;73.46;96337.41;108793;1253;95516;-77
2024/03/04 01:35:27;;;;;;;33.00;21.90;;;;;;;2.87;73.52;96338.61;108859;1253;97145;-77
2024/03/04 01:37:55;;;;;;;33.40;23.30;;;;;;;2.84;73.56;96336.56;108848;1253;103533;-77
2024/03/04 01:40:24;;;;;;;30.00;20.90;;;;;;;2.83;73.65;96335.77;108829;1252;101440;-76
2024/03/04 01:42:55;;;;;;;33.90;21.90;;;;;;;2.81;73.47;96335.14;108769;1252;100520;-76
2024/03/04 01:45:27;;;;;;;33.30;22.00;;;;;;;2.75;73.50;96335.36;108803;1253;95549;-76
2024/03/04 01:48:00;;;;;;;30.00;20.90;;;;;;;2.72;73.52;96334.54;108836;1252;96137;-76
2024/03/04 01:50:34;;;;;;;30.00;21.00;;;;;;;2.67;73.54;96333.42;108854;1251;103901;-77
2024/03/04 01:53:04;;;;;;;31.00;20.70;;;;;;;2.64;73.50;96339.21;108804;1252;101479;-77
2024/03/04 01:55:46;;;;;;;29.80;19.60;;;;;;;2.58;73.45;96333.96;108746;1252;100133;-77
2024/03/04 01:58:15;;;;;;;28.40;20.90;;;;;;;2.54;73.73;96337.05;108778;1253;95895;-77
2024/03/04 02:00:45;;;;;;;33.80;22.10;;;;;;;2.52;73.81;96333.02;108814;1253;95850;-77
2024/03/04 02:03:16;;;;;;;27.30;20.70;;;;;;;2.52;73.96;96334.46;108846;1252;103800;-77
2024/03/04 02:05:45;;;;;;;29.20;21.40;;;;;;;2.50;73.90;96343.90;108861;1252;100997;-77
2024/03/04 02:08:13;;;;;;;29.50;20.50;;;;;;;2.48;73.87;96345.95;108813;1252;100085;-77
2024/03/04 02:10:41;;;;;;;29.70;19.30;;;;;;;2.44;73.79;96345.04;108771;1252;95949;-77
2024/03/04 02:13:09;;;;;;;25.10;18.70;;;;;;;2.38;73.79;96346.66;108788;1252;95974;-77
2024/03/04 02:15:37;;;;;;;27.50;19.70;;;;;;;2.34;73.60;96347.86;108811;1252;111123;-77
2024/03/04 02:18:07;;;;;;;28.30;19.60;;;;;;;2.27;73.63;96344.86;108805;1252;108119;-77
2024/03/04 02:20:43;;;;;;;26.10;19.00;;;;;;;2.19;73.79;96343.61;108792;1252;100192;-76
2024/03/04 02:23:12;;;;;;;24.10;17.80;;;;;;;2.11;73.82;96340.56;108785;1252;95549;-77
2024/03/04 02:25:51;;;;;;;27.50;18.70;;;;;;;2.04;74.00;96342.08;108850;1252;96002;-77
2024/03/04 02:28:19;;;;;;;28.50;20.00;;;;;;;2.03;74.15;96354.51;108826;1252;104065;-77
2024/03/04 02:30:47;;;;;;;29.00;20.00;;;;;;;2.00;74.36;96352.91;108773;1253;101591;-77
2024/03/04 02:33:20;;;;;;;25.90;18.80;;;;;;;1.98;74.32;96355.08;108793;1252;100027;-76
2024/03/04 02:35:49;;;;;;;27.10;19.00;;;;;;;1.92;74.25;96348.25;108781;1252;95564;-76
2024/03/04 02:38:18;;;;;;;27.00;18.60;;;;;;;1.89;74.33;96348.73;108858;1252;96052;-77
2024/03/04 02:40:48;;;;;;;29.30;20.80;;;;;;;1.86;74.31;96345.70;108846;1252;103831;-77
2024/03/04 02:43:17;;;;;;;29.60;19.60;;;;;;;1.85;74.34;96346.04;108846;1252;101913;-77
2024/03/04 02:45:45;;;;;;;31.00;21.50;;;;;;;1.84;74.44;96354.10;108784;1252;100255;-77
2024/03/04 02:48:12;;;;;;;32.50;21.90;;;;;;;1.84;74.66;96351.40;108751;1253;96694;-77
2024/03/04 02:50:40;;;;;;;32.60;20.80;;;;;;;1.84;74.67;96354.07;108865;1253;96011;-77
2024/03/04 02:53:09;;;;;;;27.00;19.30;;;;;;;1.79;74.59;96347.41;108814;1252;103348;-77
2024/03/04 02:55:37;;;;;;;26.70;18.30;;;;;;;1.75;74.56;96354.39;108885;1252;101488;-77
2024/03/04 02:58:06;;;;;;;29.50;18.80;;;;;;;1.73;74.58;96358.57;108778;1252;99945;-76
2024/03/04 03:00:34;;;;;;;28.10;19.50;;;;;;;1.73;74.61;96358.60;108740;1252;95645;-76
2024/03/04 03:03:02;;;;;;;23.60;17.20;;;;;;;1.68;74.64;96363.58;108789;1252;96041;-77
2024/03/04 03:05:30;;;;;;;27.20;18.80;;;;;;;1.63;74.68;96363.89;108828;1253;103465;-77
2024/03/04 03:07:57;;;;;;;26.10;18.60;;;;;;;1.59;74.67;96360.10;108807;1252;101552;-77
2024/03/04 03:10:26;;;;;;;25.70;18.40;;;;;;;1.57;74.75;96363.85;108787;1252;100142;-77
2024/03/04 03:12:54;;;;;;;23.20;17.80;;;;;;;1.55;74.65;96366.73;108814;1252;95571;-77
2024/03/04 03:15:22;;;;;;;26.70;17.00;;;;;;;1.53;74.72;96367.22;108797;1252;96100;-77
2024/03/04 03:17:49;;;;;;;26.00;17.20;;;;;;;1.49;74.71;96366.05;108835;1252;103687;-77
2024/03/04 03:20:18;;;;;;;25.80;17.50;;;;;;;1.45;74.78;96373.39;108826;1252;101666;-77
2024/03/04 03:22:47;;;;;;;26.30;17.50;;;;;;;1.42;74.77;96371.15;108832;1253;100199;-77
2024/03/04 03:25:16;;;;;;;22.70;16.70;;;;;;;1.38;74.83;96369.71;108808;1252;95529;-77
2024/03/04 03:27:45;;;;;;;23.10;16.90;;;;;;;1.37;74.81;96367.89;108838;1253;96078;-77
2024/03/04 03:30:14;;;;;;;23.50;16.80;;;;;;;1.31;74.73;96371.89;108844;1252;103692;-77
2024/03/04 03:32:42;;;;;;;25.10;17.40;;;;;;;1.26;74.92;96370.87;108841;1251;101614;-77
2024/03/04 03:35:09;;;;;;;26.50;17.50;;;;;;;1.25;75.04;96372.48;108867;1252;100199;-77
2024/03/04 03:37:37;;;;;;;27.90;17.50;;;;;;;1.24;75.16;96370.81;108773;1252;95625;-77
2024/03/04 03:40:05;;;;;;;27.00;18.30;;;;;;;1.23;75.06;96378.73;108852;1252;96092;-77
2024/03/04 03:42:33;;;;;;;24.90;17.50;;;;;;;1.23;75.16;96378.66;108839;1252;103440;-77
2024/03/04 03:45:01;;;;;;;21.80;16.80;;;;;;;1.21;75.14;96380.92;108826;1252;101524;-77
2024/03/04 03:47:29;;;;;;;22.90;16.40;;;;;;;1.12;75.24;96378.10;108810;1253;100078;-77
2024/03/04 03:49:58;;;;;;;28.50;17.40;;;;;;;1.08;75.33;96377.52;108804;1251;97180;-76
2024/03/04 03:52:25;;;;;;;23.70;15.70;;;;;;;1.11;75.33;96376.03;108833;1253;96031;-77
2024/03/04 03:54:53;;;;;;;21.70;16.30;;;;;;;1.14;75.41;96375.02;108814;1252;103069;-77
2024/03/04 03:57:21;;;;;;;20.20;15.30;;;;;;;1.14;75.48;96372.40;108836;1252;101615;-76
2024/03/04 03:59:49;;;;;;;24.40;15.60;;;;;;;1.11;75.32;96366.27;108823;1252;100112;-77
2024/03/04 04:02:16;;;;;;;22.00;15.70;;;;;;;1.08;75.36;96366.48;108780;1252;95581;-77
2024/03/04 04:04:45;;;;;;;22.50;15.40;;;;;;;1.05;75.35;96370.28;108897;1251;96103;-76
2024/03/04 04:07:13;;;;;;;21.80;16.50;;;;;;;1.03;75.42;96364.14;108854;1251;103723;-77
2024/03/04 04:09:40;;;;;;;23.40;17.10;;;;;;;1.04;75.34;96360.55;108808;1252;101454;-76
2024/03/04 04:12:08;;;;;;;25.00;16.70;;;;;;;1.04;75.49;96370.12;108809;1252;100110;-76
2024/03/04 04:14:36;;;;;;;27.30;18.30;;;;;;;1.04;75.77;96366.40;108802;1252;95582;-76
2024/03/04 04:17:04;;;;;;;22.10;16.90;;;;;;;1.05;75.93;96366.13;108814;1251;96107;-76
2024/03/04 04:19:34;;;;;;;25.10;18.40;;;;;;;1.05;75.76;96367.63;108819;1253;103678;-76
2024/03/04 04:22:01;;;;;;;25.30;17.70;;;;;;;1.04;75.75;96367.96;108881;1254;101656;-77
2024/03/04 04:24:29;;;;;;;28.20;17.90;;;;;;;1.03;75.87;96370.55;108787;1253;100120;-77
2024/03/04 04:26:57;;;;;;;29.10;18.30;;;;;;;1.04;75.86;96371.18;108795;1253;95606;-77
2024/03/04 04:29:25;;;;;;;23.10;17.00;;;;;;;1.03;75.87;96366.54;108848;1251;96148;-77
2024/03/04 04:31:52;;;;;;;25.10;17.00;;;;;;;0.99;75.63;96384.45;108796;1253;111059;-77
2024/03/04 04:34:20;;;;;;;24.30;17.30;;;;;;;0.95;75.81;96380.05;108834;1252;101937;-77
2024/03/04 04:36:49;;;;;;;23.90;18.70;;;;;;;0.90;75.88;96382.87;108846;1252;100057;-76
2024/03/04 04:39:18;;;;;;;23.60;16.50;;;;;;;0.90;75.93;96382.87;108824;1252;96071;-76
2024/03/04 04:41:46;;;;;;;24.10;17.80;;;;;;;0.87;75.88;96375.60;108825;1252;96028;-76
2024/03/04 04:44:14;;;;;;;23.70;16.20;;;;;;;0.85;75.84;96376.27;108898;1252;111377;-77
2024/03/04 04:46:42;;;;;;;23.70;16.70;;;;;;;0.85;76.05;96374.47;108810;1252;100710;-77
2024/03/04 04:49:09;;;;;;;30.30;17.50;;;;;;;0.86;76.11;96381.83;108820;1253;98477;-77
2024/03/04 04:51:37;;;;;;;28.40;19.50;;;;;;;0.85;76.19;96377.33;108766;1252;95570;-77
2024/03/04 04:54:05;;;;;;;28.70;18.80;;;;;;;0.85;76.18;96380.85;108800;1252;96008;-77
2024/03/04 04:56:33;;;;;;;28.60;18.30;;;;;;;0.81;76.20;96383.64;108836;1253;102596;-77
2024/03/04 04:59:00;;;;;;;30.30;19.00;;;;;;;0.80;76.23;96384.27;108816;1253;101579;-77
2024/03/04 05:01:29;;;;;;;30.40;20.40;;;;;;;0.79;76.28;96385.64;108852;1252;100108;-77
2024/03/04 05:03:56;;;;;;;30.80;20.90;;;;;;;0.78;76.34;96381.15;108859;1253;96116;-77
2024/03/04 05:06:24;;;;;;;34.00;22.00;;;;;;;0.79;76.36;96371.81;108818;1252;96003;-78
2024/03/04 05:08:52;;;;;;;32.20;20.80;;;;;;;0.80;76.36;96372.95;108789;1252;103798;-77
2024/03/04 05:11:22;;;;;;;34.70;21.10;;;;;;;0.78;76.34;96375.56;108858;1253;101670;-76
2024/03/04 05:13:50;;;;;;;30.70;20.90;;;;;;;0.77;76.37;96378.77;108774;1253;99124;-78
2024/03/04 05:16:17;;;;;;;38.20;27.80;;;;;;;0.74;76.32;96371.46;108846;1252;96028;-78
2024/03/04 05:18:45;;;;;;;30.10;20.80;;;;;;;0.74;76.51;96381.77;108854;1251;96141;-78
2024/03/04 05:21:13;;;;;;;29.60;19.70;;;;;;;0.75;76.75;96376.98;108839;1253;103805;-77
2024/03/04 05:23:41;;;;;;;30.70;20.10;;;;;;;0.78;76.60;96384.34;108809;1252;101706;-77
2024/03/04 05:26:09;;;;;;;31.30;20.50;;;;;;;0.79;76.50;96394.84;108841;1253;99615;-77
2024/03/04 05:28:36;;;;;;;29.70;19.20;;;;;;;0.81;76.64;96391.94;108793;1252;95578;-77
2024/03/04 05:31:04;;;;;;;34.20;21.90;;;;;;;0.77;76.44;96395.03;108877;1252;96102;-77
2024/03/04 05:33:32;;;;;;;35.60;23.70;;;;;;;0.75;76.48;96391.02;108842;1253;103510;-77
2024/03/04 05:36:04;;;;;;;36.20;23.70;;;;;;;0.72;76.42;96391.18;108826;1253;101624;-77
2024/03/04 05:38:32;;;;;;;45.20;26.60;;;;;;;0.71;76.50;96385.78;108834;1252;100013;-78
2024/03/04 05:41:00;;;;;;;67.40;38.00;;;;;;;0.71;76.61;96382.56;108783;1253;96068;-76
2024/03/04 05:43:28;;;;;;;52.00;32.10;;;;;;;0.72;76.61;96384.98;108871;1252;96140;-78
2024/03/04 05:45:55;;;;;;;46.40;27.80;;;;;;;0.71;76.81;96377.72;108898;1252;103818;-76
2024/03/04 05:48:23;;;;;;;40.90;25.70;;;;;;;0.71;76.78;96380.80;108862;1253;109098;-77
2024/03/04 05:50:51;;;;;;;41.60;22.20;;;;;;;0.71;76.95;96384.73;108850;1252;99912;-77
2024/03/04 05:53:20;;;;;;;38.50;23.40;;;;;;;0.71;77.08;96379.24;108775;1252;95722;-78
2024/03/04 05:55:48;;;;;;;42.00;25.80;;;;;;;0.73;77.19;96378.16;108805;1252;96061;-77
2024/03/04 05:58:15;;;;;;;48.90;28.40;;;;;;;0.75;77.12;96380.40;108916;1252;103553;-76
2024/03/04 06:00:43;;;;;;;51.00;30.20;;;;;;;0.77;77.12;96381.23;108868;1253;101578;-77
2024/03/04 06:03:11;;;;;;;51.30;30.20;;;;;;;0.81;77.22;96379.38;108807;1251;100133;-77
2024/03/04 06:05:39;;;;;;;50.40;30.40;;;;;;;0.84;77.38;96380.26;108870;1254;95734;-77
2024/03/04 06:08:07;;;;;;;52.00;28.40;;;;;;;0.87;77.45;96383.61;108795;1253;96004;-76
2024/03/04 06:10:35;;;;;;;52.80;27.80;;;;;;;0.90;77.44;96379.14;108846;1252;103597;-77
2024/03/04 06:13:04;;;;;;;43.50;28.70;;;;;;;0.95;77.63;96384.14;108816;1252;101570;-77
2024/03/04 06:15:31;;;;;;;45.70;30.00;;;;;;;1.00;77.68;96389.51;108820;1253;100108;-76
2024/03/04 06:17:59;;;;;;;51.50;31.90;;;;;;;1.06;77.75;96392.57;108852;1253;95595;-77
2024/03/04 06:20:27;;;;;;;55.10;30.20;;;;;;;1.10;77.78;96387.80;108900;1252;96142;-76
2024/03/04 06:22:54;;;;;;;55.80;34.70;;;;;;;1.14;77.78;96387.62;108855;1253;102589;-77
2024/03/04 06:25:22;;;;;;;43.50;28.90;;;;;;;1.16;77.86;96388.90;108870;1251;101352;-76
2024/03/04 06:27:50;;;;;;;48.10;28.30;;;;;;;1.20;77.82;96390.73;108819;1253;99977;-77
2024/03/04 06:30:17;;;;;;;49.80;31.00;;;;;;;1.26;77.92;96390.75;108771;1252;96382;-77
2024/03/04 06:32:45;;;;;;;45.90;25.90;;;;;;;1.33;77.97;96391.55;108830;1253;96355;-77
2024/03/04 06:35:13;;;;;;;47.90;30.00;;;;;;;1.37;77.96;96391.02;108847;1253;103870;-76
2024/03/04 06:37:40;;;;;;;51.30;31.50;;;;;;;1.42;78.02;96391.69;108805;1253;101438;-77
2024/03/04 06:40:09;;;;;;;51.00;31.80;;;;;;;1.48;78.04;96393.48;108887;1252;100250;-78
2024/03/04 06:42:37;;;;;;;49.70;29.20;;;;;;;1.56;78.15;96395.71;108767;1254;95917;-76
2024/03/04 06:45:05;;;;;;;46.00;27.90;;;;;;;1.61;78.15;96398.29;108791;1253;96095;-78
2024/03/04 06:47:33;;;;;;;46.60;28.70;;;;;;;1.66;78.18;96396.20;108820;1254;103627;-78
2024/03/04 06:50:01;;;;;;;46.80;28.80;;;;;;;1.70;78.17;96394.42;108818;1252;101713;-79
2024/03/04 06:52:28;;;;;;;47.80;30.20;;;;;;;1.75;78.17;96395.41;108750;1252;99941;-78
2024/03/04 06:54:56;;;;;;;48.80;30.00;;;;;;;1.82;78.29;96395.46;108788;1251;95601;-78
2024/03/04 06:57:24;;;;;;;41.30;27.60;;;;;;;1.90;78.29;96392.59;108882;1253;96056;-78
2024/03/04 06:59:51;;;;;;;42.00;25.80;;;;;;;1.97;78.23;96390.20;108893;1253;103629;-78
2024/03/04 07:02:19;;;;;;;41.20;27.10;;;;;;;2.03;78.39;96399.77;108855;1252;101595;-78
2024/03/04 07:04:47;;;;;;;43.20;27.00;;;;;;;2.09;78.58;96398.13;108848;1254;100056;-78
2024/03/04 07:07:14;;;;;;;39.20;27.10;;;;;;;2.17;78.64;96396.77;108810;1252;95612;-77
2024/03/04 07:09:42;;;;;;;46.20;28.10;;;;;;;2.26;78.76;96395.90;108830;1252;95959;-78
2024/03/04 07:12:10;;;;;;;39.40;26.40;;;;;;;2.36;78.77;96393.62;108819;1253;103712;-78
2024/03/04 07:14:38;;;;;;;42.10;25.40;;;;;;;2.45;78.84;96397.60;108873;1252;101440;-78
2024/03/04 07:17:05;;;;;;;33.90;24.00;;;;;;;2.57;78.95;96398.92;108804;1252;100164;-78
2024/03/04 07:19:33;;;;;;;41.90;25.20;;;;;;;2.68;79.10;96398.97;108826;1253;95543;-78
2024/03/04 07:22:01;;;;;;;37.10;25.20;;;;;;;2.79;79.22;96399.92;108846;1253;96022;-78
2024/03/04 07:24:29;;;;;;;40.50;26.20;;;;;;;2.90;79.34;96396.20;108839;1252;103852;-79
2024/03/04 07:26:57;;;;;;;38.70;25.70;;;;;;;3.04;79.54;96396.07;108856;1253;101554;-78
2024/03/04 07:29:24;;;;;;;35.90;24.20;;;;;;;3.21;79.45;96398.02;108877;1252;107492;-78
2024/03/04 07:31:52;;;;;;;36.10;24.60;;;;;;;3.39;79.56;96398.38;108796;1252;95617;-78
2024/03/04 07:34:22;;;;;;;37.80;23.50;;;;;;;3.59;79.49;96402.89;108765;1253;95982;-79
2024/03/04 07:36:50;;;;;;;32.50;21.30;;;;;;;3.80;79.46;96399.70;108680;1252;103754;-78
2024/03/04 07:39:18;;;;;;;33.50;22.50;;;;;;;4.01;79.44;96398.50;108705;1254;101140;-79
2024/03/04 07:41:46;;;;;;;33.00;22.00;;;;;;;4.25;79.40;96397.91;108680;1252;99534;-79
2024/03/04 07:44:13;;;;;;;32.00;22.50;;;;;;;4.54;79.30;96392.64;108780;1252;97065;-79
2024/03/04 07:46:41;;;;;;;31.40;21.60;;;;;;;4.80;79.02;96391.70;108790;1253;97040;-79
2024/03/04 07:49:09;;;;;;;32.70;21.80;;;;;;;5.10;78.62;96394.75;108832;1253;103799;-79
2024/03/04 07:51:37;;;;;;;32.10;20.90;;;;;;;5.38;78.54;96393.40;108829;1254;101399;-79
2024/03/04 07:54:04;;;;;;;32.10;20.00;;;;;;;5.64;78.38;96388.25;108862;1252;100011;-79
2024/03/04 07:56:34;;;;;;;31.40;19.70;;;;;;;5.95;78.27;96388.79;108784;1252;95639;-79
2024/03/04 07:59:01;;;;;;;26.20;19.00;;;;;;;6.24;77.89;96389.04;108865;1252;96092;-79
2024/03/04 08:01:29;;;;;;;24.20;17.60;;;;;;;6.55;77.69;96384.27;108834;1252;102327;-80
2024/03/04 08:03:57;;;;;;;25.90;17.70;;;;;;;6.89;77.31;96383.15;108856;1254;101626;-79
2024/03/04 08:06:24;;;;;;;38.30;21.90;;;;;;;7.23;77.07;96385.09;108834;1252;100165;-79
2024/03/04 08:08:52;;;;;;;43.00;21.70;;;;;;;7.58;76.41;96382.81;108844;1252;95769;-79
2024/03/04 08:11:20;;;;;;;38.50;19.50;;;;;;;7.90;75.95;96378.65;108847;1253;96057;-79
2024/03/04 08:13:47;;;;;;;26.30;16.30;;;;;;;8.24;75.70;96376.20;108812;1254;103409;-79
2024/03/04 08:16:15;;;;;;;25.90;17.60;;;;;;;8.60;75.06;96374.90;108843;1253;101663;-79
2024/03/04 08:18:43;;;;;;;24.70;17.10;;;;;;;8.94;74.49;96372.74;108774;1252;99983;-79
2024/03/04 08:21:19;;;;;;;21.50;15.70;;;;;;;9.29;73.64;96373.77;108787;1253;95546;-80
2024/03/04 08:23:47;;;;;;;24.40;15.50;;;;;;;9.60;73.11;96373.73;108810;1252;96133;-80
2024/03/04 08:26:15;;;;;;;22.30;13.70;;;;;;;9.91;72.81;96370.42;108819;1253;103993;-80
2024/03/04 08:28:44;;;;;;;22.80;13.70;;;;;;;10.20;72.29;96370.94;108794;1253;101485;-79
2024/03/04 08:31:12;;;;;;;23.60;13.10;;;;;;;10.45;71.15;96368.44;108797;1252;100278;-80
2024/03/04 08:33:39;;;;;;;16.50;11.20;;;;;;;10.64;70.74;96362.11;108801;1252;95624;-80
2024/03/04 08:36:07;;;;;;;16.70;11.20;;;;;;;10.81;70.14;96361.20;108840;1253;96036;-79
2024/03/04 08:38:35;;;;;;;15.10;11.10;;;;;;;11.01;69.48;96364.90;108857;1253;103951;-79
2024/03/04 08:41:04;;;;;;;14.60;11.10;;;;;;;11.15;68.63;96361.31;108888;1253;101668;-79
2024/03/04 08:43:32;;;;;;;16.30;10.50;;;;;;;11.28;68.19;96363.16;108784;1252;99065;-80
2024/03/04 08:45:59;;;;;;;19.90;12.20;;;;;;;11.46;68.34;96362.97;108852;1253;96602;-79
2024/03/04 08:48:27;;;;;;;18.40;12.60;;;;;;;11.66;68.06;96359.02;108863;1252;95820;-80
2024/03/04 08:50:55;;;;;;;18.40;11.60;;;;;;;11.82;67.57;96356.23;108826;1253;103453;-79
2024/03/04 08:53:23;;;;;;;18.50;12.90;;;;;;;11.96;67.03;96355.44;108817;1253;101543;-79
2024/03/04 08:55:53;;;;;;;22.50;14.20;;;;;;;12.11;66.24;96351.20;108759;1253;100033;-79
2024/03/04 08:58:21;;;;;;;24.10;14.30;;;;;;;12.26;66.09;96351.71;108808;1253;95976;-80
2024/03/04 09:00:49;;;;;;;19.50;14.00;;;;;;;12.46;65.97;96356.82;108878;1253;96042;-80
2024/03/04 09:03:17;;;;;;;20.50;14.00;;;;;;;12.70;65.77;96350.13;108842;1253;103636;-80
2024/03/04 09:05:44;;;;;;;18.80;13.40;;;;;;;12.96;65.50;96345.64;108812;1254;102056;-80
2024/03/04 09:08:12;;;;;;;18.30;13.60;;;;;;;13.27;65.31;96347.70;108795;1253;100224;-80
2024/03/04 09:10:40;;;;;;;19.10;13.30;;;;;;;13.50;64.05;96348.55;108807;1253;95555;-80
2024/03/04 09:13:08;;;;;;;20.00;13.30;;;;;;;13.63;63.08;96346.25;108889;1254;96010;-80
2024/03/04 09:15:36;;;;;;;18.10;12.50;;;;;;;13.76;63.24;96342.33;108799;1253;103772;-79
2024/03/04 09:18:05;;;;;;;18.30;12.10;;;;;;;13.99;62.73;96341.49;108863;1252;101635;-80
2024/03/04 09:20:33;;;;;;;20.40;12.10;;;;;;;14.23;62.31;96339.14;108856;1253;99961;-80
2024/03/04 09:23:00;;;;;;;18.30;12.60;;;;;;;14.52;62.35;96337.58;108873;1252;95583;-81
2024/03/04 09:25:28;;;;;;;14.50;10.90;;;;;;;14.76;61.06;96335.83;108846;1253;96089;-81
2024/03/04 09:27:56;;;;;;;13.80;10.70;;;;;;;14.96;60.43;96338.58;108867;1253;104037;-80
2024/03/04 09:30:25;;;;;;;15.60;10.10;;;;;;;15.24;60.15;96332.98;108924;1253;101619;-81
2024/03/04 09:32:52;;;;;;;13.20;9.60;;;;;;;15.52;59.18;96329.91;108753;1254;100130;-81
2024/03/04 09:35:20;;;;;;;12.60;9.00;;;;;;;15.77;58.07;96329.77;108805;1253;95859;-81
2024/03/04 09:37:48;;;;;;;14.20;9.20;;;;;;;15.96;57.87;96328.76;108812;1252;95644;-81
2024/03/04 09:40:16;;;;;;;12.30;9.50;;;;;;;16.19;56.89;96327.78;108873;1254;103611;-81
2024/03/04 09:42:48;;;;;;;12.10;8.70;;;;;;;16.41;56.29;96329.12;108847;1252;101830;-81
2024/03/04 09:45:18;;;;;;;11.90;8.60;;;;;;;16.66;56.44;96329.16;108824;1253;100100;-81
2024/03/04 09:47:51;;;;;;;13.80;9.90;;;;;;;16.97;55.86;96328.26;108827;1253;95591;-81
2024/03/04 09:50:20;;;;;;;36.20;21.60;;;;;;;17.23;54.70;96326.58;108785;1252;95665;-81
2024/03/04 09:52:49;;;;;;;44.60;31.20;;;;;;;17.42;54.52;96324.85;108800;1253;103487;-81
2024/03/04 09:55:18;;;;;;;26.40;19.30;;;;;;;17.73;54.22;96323.55;108888;1254;101030;-81
2024/03/04 09:57:46;;;;;;;22.80;15.70;;;;;;;18.06;53.02;96323.86;108852;1253;98985;-82
2024/03/04 10:00:14;;;;;;;20.20;13.20;;;;;;;18.26;52.16;96317.58;108794;1253;95616;-81
2024/03/04 10:02:43;;;;;;;12.20;9.30;;;;;;;18.46;51.78;96314.89;108684;1255;157622;-81
2024/03/04 10:05:13;;;;;;;14.50;8.10;;;;;;;18.65;50.25;96314.14;108817;1253;103815;-82
2024/03/04 10:07:41;;;;;;;11.40;7.50;;;;;;;18.83;49.43;96316.08;108852;1253;101712;-82
2024/03/04 10:10:12;;;;;;;9.00;7.10;;;;;;;18.98;48.59;96314.31;108830;1254;100101;-82
2024/03/04 10:12:40;;;;;;;9.60;7.60;;;;;;;19.10;48.34;96315.22;108801;1254;95616;-82
2024/03/04 10:15:09;;;;;;;10.90;7.20;;;;;;;19.13;48.01;96313.16;108833;1252;95643;-82
2024/03/04 10:17:38;;;;;;;9.60;6.50;;;;;;;19.09;47.26;96307.52;108901;1254;103578;-82
2024/03/04 10:20:11;;;;;;;8.10;5.70;;;;;;;19.21;48.39;96312.20;108829;1252;102790;-82
2024/03/04 10:22:40;;;;;;;8.10;5.20;;;;;;;19.59;47.40;96308.02;108775;1254;100627;-82
2024/03/04 10:25:08;;;;;;;7.90;4.60;;;;;;;19.84;45.87;96300.52;108765;1252;95696;-82
2024/03/04 10:27:38;;;;;;;6.00;4.40;;;;;;;20.01;45.61;96296.70;108838;1253;95985;-82
2024/03/04 10:30:21;;;;;;;7.20;4.80;;;;;;;20.27;45.72;96296.98;108834;1252;103374;-82
2024/03/04 10:32:54;;;;;;;7.20;4.20;;;;;;;20.56;44.37;96290.73;108827;1252;101775;-83
2024/03/04 10:35:21;;;;;;;5.20;3.90;;;;;;;20.75;44.33;96285.58;108815;1253;99806;-82
2024/03/04 10:37:51;;;;;;;7.40;4.40;;;;;;;20.92;43.92;96282.17;108824;1252;96223;-83
2024/03/04 10:40:20;;;;;;;7.00;3.30;;;;;;;21.11;42.75;96281.66;108872;1253;96170;-83
2024/03/04 10:42:48;;;;;;;7.20;3.50;;;;;;;21.19;40.41;96278.52;108875;1254;103553;-82
2024/03/04 10:45:16;;;;;;;6.30;3.70;;;;;;;21.19;39.60;96280.32;108809;1254;101530;-82
2024/03/04 10:47:45;;;;;;;4.80;3.10;;;;;;;21.19;38.29;96277.42;108813;1254;100181;-83
2024/03/04 10:50:15;;;;;;;7.70;3.20;;;;;;;21.35;40.14;96270.29;108775;1254;95618;-82
2024/03/04 10:52:43;;;;;;;4.40;3.10;;;;;;;21.70;39.41;96264.29;108836;1253;95796;-82
2024/03/04 10:55:12;;;;;;;6.50;3.20;;;;;;;21.84;36.12;96264.11;108809;1253;103767;-82
2024/03/04 10:57:44;;;;;;;5.00;3.40;;;;;;;21.84;36.62;96261.77;108883;1254;101700;-82
2024/03/04 11:00:25;;;;;;;6.00;2.60;;;;;;;21.94;36.54;96267.11;108794;1252;100146;-82
2024/03/04 11:03:02;;;;;;;3.30;2.80;;;;;;;22.02;34.98;96257.95;108825;1254;95587;-82
2024/03/04 11:05:33;;;;;;;4.40;2.40;;;;;;;22.09;35.37;96256.59;108826;1254;95646;-83
2024/03/04 11:08:15;;;;;;;4.40;2.60;;;;;;;22.18;34.82;96253.45;108882;1253;103756;-82
2024/03/04 11:10:50;;;;;;;4.50;2.30;;;;;;;21.97;34.72;96251.39;108799;1253;101662;-82
2024/03/04 11:13:37;;;;;;;8.40;2.60;;;;;;;21.99;35.19;96256.76;108825;1256;99949;-82
2024/03/04 11:16:12;;;;;;;5.50;2.70;;;;;;;21.87;34.11;96254.32;108792;1253;95621;-82
2024/03/04 11:18:54;;;;;;;4.90;2.90;;;;;;;21.61;33.36;96250.91;108816;1253;95589;-82